sensor_id;sensor_type;location;lat;lon;timestamp;pressure;altitude;pressure_sealevel;temperature;humidity
1926;BME280;964;42.606;23.588;2023-02-20T00:01:59;94799.75;;;26.46;25.00
1926;BME280;964;42.606;23.588;2023-02-20T00:04:27;94795.63;;;27.70;24.35
1926;BME280;964;42.606;23.588;2023-02-20T00:06:54;94798.19;;;26.98;24.79
1926;BME280;964;42.606;23.588;2023-02-20T00:09:21;94800.69;;;26.83;24.75
1926;BME280;964;42.606;23.588;2023-02-20T00:11:48;94795.47;;;28.10;23.94
1926;BME280;964;42.606;23.588;2023-02-20T00:14:14;94800.09;;;27.28;24.28
1926;BME280;964;42.606;23.588;2023-02-20T00:16:41;94792.13;;;27.52;24.09
1926;BME280;964;42.606;23.588;2023-02-20T00:19:07;94810.88;;;27.01;24.91
1926;BME280;964;42.606;23.588;2023-02-20T00:21:35;94806.31;;;25.93;25.70
1926;BME280;964;42.606;23.588;2023-02-20T00:24:02;94805.88;;;26.59;25.54
1926;BME280;964;42.606;23.588;2023-02-20T00:26:29;94812.41;;;26.40;25.32
1926;BME280;964;42.606;23.588;2023-02-20T00:28:56;94806.31;;;26.67;25.13
1926;BME280;964;42.606;23.588;2023-02-20T00:31:22;94813.59;;;26.92;25.55
1926;BME280;964;42.606;23.588;2023-02-20T00:33:49;94813.78;;;27.06;25.19
1926;BME280;964;42.606;23.588;2023-02-20T00:36:17;94806.81;;;27.63;24.78
1926;BME280;964;42.606;23.588;2023-02-20T00:38:46;94809.84;;;27.84;24.61
1926;BME280;964;42.606;23.588;2023-02-20T00:41:13;94809.75;;;27.29;25.15
1926;BME280;964;42.606;23.588;2023-02-20T00:43:42;94797.66;;;27.21;25.09
1926;BME280;964;42.606;23.588;2023-02-20T00:46:10;94799.53;;;28.93;23.65
1926;BME280;964;42.606;23.588;2023-02-20T00:48:37;94798.66;;;28.00;24.17
1926;BME280;964;42.606;23.588;2023-02-20T00:51:04;94799.84;;;29.52;23.02
1926;BME280;964;42.606;23.588;2023-02-20T00:53:31;94811.31;;;27.39;24.74
1926;BME280;964;42.606;23.588;2023-02-20T00:55:59;94804.22;;;27.69;24.35
1926;BME280;964;42.606;23.588;2023-02-20T00:58:26;94810.75;;;27.81;24.57
1926;BME280;964;42.606;23.588;2023-02-20T01:00:52;94804.63;;;27.40;24.95
1926;BME280;964;42.606;23.588;2023-02-20T01:03:19;94797.22;;;29.34;22.98
1926;BME280;964;42.606;23.588;2023-02-20T01:05:46;94788.97;;;29.66;22.62
1926;BME280;964;42.606;23.588;2023-02-20T01:08:12;94806.53;;;29.27;23.03
1926;BME280;964;42.606;23.588;2023-02-20T01:10:39;94813.63;;;29.57;22.64
1926;BME280;964;42.606;23.588;2023-02-20T01:13:07;94822.16;;;29.74;22.59
1926;BME280;964;42.606;23.588;2023-02-20T01:15:34;94825.28;;;29.34;22.96
1926;BME280;964;42.606;23.588;2023-02-20T01:18:01;94825.34;;;30.49;21.64
1926;BME280;964;42.606;23.588;2023-02-20T01:20:27;94828.31;;;30.22;21.47
1926;BME280;964;42.606;23.588;2023-02-20T01:22:54;94821.28;;;29.44;22.67
1926;BME280;964;42.606;23.588;2023-02-20T01:25:21;94828.13;;;29.07;22.87
1926;BME280;964;42.606;23.588;2023-02-20T01:27:47;94825.19;;;29.52;22.36
1926;BME280;964;42.606;23.588;2023-02-20T01:30:16;94834.31;;;28.65;23.22
1926;BME280;964;42.606;23.588;2023-02-20T01:32:43;94827.19;;;28.68;23.85
1926;BME280;964;42.606;23.588;2023-02-20T01:35:10;94839.50;;;28.36;24.02
1926;BME280;964;42.606;23.588;2023-02-20T01:37:36;94838.66;;;29.80;22.54
1926;BME280;964;42.606;23.588;2023-02-20T01:40:04;94843.84;;;30.01;22.47
1926;BME280;964;42.606;23.588;2023-02-20T01:42:32;94837.31;;;29.51;23.07
1926;BME280;964;42.606;23.588;2023-02-20T01:45:29;94835.13;;;28.99;23.71
1926;BME280;964;42.606;23.588;2023-02-20T01:47:58;94831.13;;;29.51;23.47
1926;BME280;964;42.606;23.588;2023-02-20T01:50:28;94820.78;;;30.32;22.79
1926;BME280;964;42.606;23.588;2023-02-20T01:52:58;94823.25;;;29.11;23.89
1926;BME280;964;42.606;23.588;2023-02-20T01:55:29;94836.03;;;27.72;25.28
1926;BME280;964;42.606;23.588;2023-02-20T01:57:59;94836.50;;;27.98;25.31
1926;BME280;964;42.606;23.588;2023-02-20T02:00:26;94841.66;;;27.28;25.90
1926;BME280;964;42.606;23.588;2023-02-20T02:02:59;94848.91;;;26.39;26.99
1926;BME280;964;42.606;23.588;2023-02-20T02:05:28;94855.50;;;27.52;26.05
1926;BME280;964;42.606;23.588;2023-02-20T02:07:56;94841.50;;;28.27;24.95
1926;BME280;964;42.606;23.588;2023-02-20T02:10:29;94830.09;;;28.46;24.85
1926;BME280;964;42.606;23.588;2023-02-20T02:12:57;94848.59;;;27.29;26.05
1926;BME280;964;42.606;23.588;2023-02-20T02:15:24;94850.69;;;27.74;25.51
1926;BME280;964;42.606;23.588;2023-02-20T02:24:16;94847.66;;;27.72;25.68
1926;BME280;964;42.606;23.588;2023-02-20T02:27:16;94844.69;;;28.34;25.20
1926;BME280;964;42.606;23.588;2023-02-20T02:30:01;94841.75;;;27.47;25.71
1926;BME280;964;42.606;23.588;2023-02-20T02:33:03;94825.97;;;26.93;26.02
1926;BME280;964;42.606;23.588;2023-02-20T02:38:46;94831.78;;;26.82;25.99
1926;BME280;964;42.606;23.588;2023-02-20T02:41:21;94831.09;;;26.38;26.46
1926;BME280;964;42.606;23.588;2023-02-20T02:43:53;94854.31;;;27.62;25.24
1926;BME280;964;42.606;23.588;2023-02-20T02:46:27;94871.63;;;26.98;25.58
1926;BME280;964;42.606;23.588;2023-02-20T02:48:58;94889.53;;;25.87;26.67
1926;BME280;964;42.606;23.588;2023-02-20T02:51:29;94890.34;;;27.75;24.70
1926;BME280;964;42.606;23.588;2023-02-20T02:54:10;94892.75;;;27.64;24.79
1926;BME280;964;42.606;23.588;2023-02-20T02:56:38;94903.00;;;26.24;26.38
1926;BME280;964;42.606;23.588;2023-02-20T02:59:07;94903.84;;;26.77;25.77
1926;BME280;964;42.606;23.588;2023-02-20T03:01:38;94903.25;;;26.61;25.78
1926;BME280;964;42.606;23.588;2023-02-20T03:04:09;94900.16;;;26.28;26.31
1926;BME280;964;42.606;23.588;2023-02-20T03:06:38;94891.06;;;26.22;26.17
1926;BME280;964;42.606;23.588;2023-02-20T03:09:11;94896.13;;;26.54;25.80
1926;BME280;964;42.606;23.588;2023-02-20T03:11:40;94899.13;;;25.78;26.51
1926;BME280;964;42.606;23.588;2023-02-20T03:14:12;94892.19;;;25.99;25.99
1926;BME280;964;42.606;23.588;2023-02-20T03:17:05;94901.50;;;26.45;26.02
1926;BME280;964;42.606;23.588;2023-02-20T03:19:38;94918.66;;;25.73;26.60
1926;BME280;964;42.606;23.588;2023-02-20T03:22:12;94915.16;;;26.76;25.54
1926;BME280;964;42.606;23.588;2023-02-20T03:24:43;94921.47;;;26.95;25.56
1926;BME280;964;42.606;23.588;2023-02-20T03:27:24;94918.31;;;27.27;25.18
1926;BME280;964;42.606;23.588;2023-02-20T03:29:55;94930.19;;;26.68;25.41
1926;BME280;964;42.606;23.588;2023-02-20T03:32:26;94932.09;;;26.80;25.63
1926;BME280;964;42.606;23.588;2023-02-20T03:35:12;94932.84;;;26.37;26.01
1926;BME280;964;42.606;23.588;2023-02-20T03:37:59;94942.16;;;26.02;26.23
1926;BME280;964;42.606;23.588;2023-02-20T03:40:47;94939.03;;;26.38;25.85
1926;BME280;964;42.606;23.588;2023-02-20T03:43:34;94932.97;;;26.33;26.11
1926;BME280;964;42.606;23.588;2023-02-20T03:46:04;94935.25;;;26.78;25.85
1926;BME280;964;42.606;23.588;2023-02-20T03:48:36;94929.00;;;26.47;25.80
1926;BME280;964;42.606;23.588;2023-02-20T03:51:05;94924.13;;;26.86;25.34
1926;BME280;964;42.606;23.588;2023-02-20T03:53:32;94944.88;;;26.02;26.17
1926;BME280;964;42.606;23.588;2023-02-20T03:56:03;94937.03;;;26.72;25.21
1926;BME280;964;42.606;23.588;2023-02-20T03:58:33;94932.59;;;26.66;25.67
1926;BME280;964;42.606;23.588;2023-02-20T04:01:05;94935.38;;;25.84;26.26
1926;BME280;964;42.606;23.588;2023-02-20T04:03:36;94929.47;;;25.99;26.10
1926;BME280;964;42.606;23.588;2023-02-20T04:06:05;94931.19;;;26.05;26.22
1926;BME280;964;42.606;23.588;2023-02-20T04:08:36;94940.81;;;25.09;27.01
1926;BME280;964;42.606;23.588;2023-02-20T04:11:09;94955.13;;;25.72;26.48
1926;BME280;964;42.606;23.588;2023-02-20T04:13:37;94936.81;;;27.41;24.52
1926;BME280;964;42.606;23.588;2023-02-20T04:16:05;94948.28;;;26.40;25.35
1926;BME280;964;42.606;23.588;2023-02-20T04:18:32;94962.34;;;26.26;25.77
1926;BME280;964;42.606;23.588;2023-02-20T04:21:02;94960.75;;;26.38;25.49
1926;BME280;964;42.606;23.588;2023-02-20T04:23:35;94939.31;;;27.57;24.23
1926;BME280;964;42.606;23.588;2023-02-20T04:26:06;94946.75;;;25.92;25.81
1926;BME280;964;42.606;23.588;2023-02-20T04:28:35;94957.53;;;25.70;25.76
1926;BME280;964;42.606;23.588;2023-02-20T04:31:02;94947.41;;;25.96;25.89
1926;BME280;964;42.606;23.588;2023-02-20T04:33:29;94963.47;;;25.91;25.88
1926;BME280;964;42.606;23.588;2023-02-20T04:35:56;94963.19;;;25.63;26.16
1926;BME280;964;42.606;23.588;2023-02-20T04:38:23;94964.69;;;25.90;25.74
1926;BME280;964;42.606;23.588;2023-02-20T04:40:49;94965.06;;;25.00;26.73
1926;BME280;964;42.606;23.588;2023-02-20T04:43:17;94947.03;;;24.80;26.82
1926;BME280;964;42.606;23.588;2023-02-20T04:45:44;94937.22;;;24.70;26.95
1926;BME280;964;42.606;23.588;2023-02-20T04:48:11;94925.97;;;24.72;26.64
1926;BME280;964;42.606;23.588;2023-02-20T04:50:37;94961.25;;;25.51;26.15
1926;BME280;964;42.606;23.588;2023-02-20T04:53:05;94965.34;;;25.43;26.10
1926;BME280;964;42.606;23.588;2023-02-20T04:55:32;94965.84;;;25.00;26.77
1926;BME280;964;42.606;23.588;2023-02-20T04:57:59;94962.94;;;24.78;26.74
1926;BME280;964;42.606;23.588;2023-02-20T05:00:27;94983.13;;;25.19;26.67
1926;BME280;964;42.606;23.588;2023-02-20T05:02:55;94980.13;;;25.42;26.27
1926;BME280;964;42.606;23.588;2023-02-20T05:05:24;94974.47;;;24.25;27.51
1926;BME280;964;42.606;23.588;2023-02-20T05:07:53;94981.69;;;25.02;27.15
1926;BME280;964;42.606;23.588;2023-02-20T05:10:21;94988.91;;;24.63;27.33
1926;BME280;964;42.606;23.588;2023-02-20T05:12:47;94997.41;;;24.65;27.29
1926;BME280;964;42.606;23.588;2023-02-20T05:15:14;95008.97;;;25.49;26.34
1926;BME280;964;42.606;23.588;2023-02-20T05:17:42;95010.94;;;25.48;26.31
1926;BME280;964;42.606;23.588;2023-02-20T05:20:11;95010.16;;;25.48;26.04
1926;BME280;964;42.606;23.588;2023-02-20T05:22:37;95019.94;;;25.45;25.82
1926;BME280;964;42.606;23.588;2023-02-20T05:25:22;95016.38;;;24.49;26.60
1926;BME280;964;42.606;23.588;2023-02-20T05:31:24;95018.53;;;25.28;25.21
1926;BME280;964;42.606;23.588;2023-02-20T05:33:52;95030.72;;;25.61;25.38
1926;BME280;964;42.606;23.588;2023-02-20T05:36:18;95030.09;;;25.16;25.20
1926;BME280;964;42.606;23.588;2023-02-20T05:38:45;95027.38;;;25.16;25.10
1926;BME280;964;42.606;23.588;2023-02-20T05:41:13;95036.50;;;24.64;25.51
1926;BME280;964;42.606;23.588;2023-02-20T05:43:40;95044.94;;;25.11;24.99
1926;BME280;964;42.606;23.588;2023-02-20T05:46:07;95040.03;;;24.77;25.18
1926;BME280;964;42.606;23.588;2023-02-20T05:48:34;95042.59;;;25.26;24.74
1926;BME280;964;42.606;23.588;2023-02-20T05:51:02;95046.16;;;26.62;23.36
1926;BME280;964;42.606;23.588;2023-02-20T05:53:30;95040.34;;;26.72;23.25
1926;BME280;964;42.606;23.588;2023-02-20T05:55:57;95053.19;;;27.28;22.53
1926;BME280;964;42.606;23.588;2023-02-20T05:58:24;95045.06;;;27.99;22.16
1926;BME280;964;42.606;23.588;2023-02-20T06:00:51;95039.50;;;28.69;21.26
1926;BME280;964;42.606;23.588;2023-02-20T06:03:18;95032.03;;;29.25;21.17
1926;BME280;964;42.606;23.588;2023-02-20T06:05:45;95051.91;;;26.64;23.29
1926;BME280;964;42.606;23.588;2023-02-20T06:08:13;95051.56;;;26.15;23.86
1926;BME280;964;42.606;23.588;2023-02-20T06:10:39;95078.94;;;25.95;24.09
1926;BME280;964;42.606;23.588;2023-02-20T06:13:06;95075.00;;;26.59;23.48
1926;BME280;964;42.606;23.588;2023-02-20T06:15:33;95068.16;;;29.29;21.39
1926;BME280;964;42.606;23.588;2023-02-20T06:17:59;95059.97;;;29.80;21.13
1926;BME280;964;42.606;23.588;2023-02-20T06:20:26;95057.88;;;30.88;20.28
1926;BME280;964;42.606;23.588;2023-02-20T06:22:53;95070.47;;;31.47;19.22
1926;BME280;964;42.606;23.588;2023-02-20T06:25:21;95054.00;;;32.06;18.66
1926;BME280;964;42.606;23.588;2023-02-20T06:27:47;95041.59;;;32.45;18.45
1926;BME280;964;42.606;23.588;2023-02-20T06:30:14;95050.59;;;32.11;18.26
1926;BME280;964;42.606;23.588;2023-02-20T06:32:41;95042.22;;;31.71;19.29
1926;BME280;964;42.606;23.588;2023-02-20T06:35:08;95054.97;;;31.44;18.81
1926;BME280;964;42.606;23.588;2023-02-20T06:37:34;95059.13;;;31.25;18.54
1926;BME280;964;42.606;23.588;2023-02-20T06:40:03;95051.94;;;29.85;19.33
1926;BME280;964;42.606;23.588;2023-02-20T06:42:31;95051.91;;;30.51;19.00
1926;BME280;964;42.606;23.588;2023-02-20T06:44:58;95064.28;;;30.37;18.95
1926;BME280;964;42.606;23.588;2023-02-20T06:47:24;95067.38;;;30.30;18.76
1926;BME280;964;42.606;23.588;2023-02-20T06:49:51;95062.13;;;29.76;18.99
1926;BME280;964;42.606;23.588;2023-02-20T06:52:18;95052.78;;;30.81;18.23
1926;BME280;964;42.606;23.588;2023-02-20T06:54:44;95068.38;;;30.65;18.58
1926;BME280;964;42.606;23.588;2023-02-20T06:57:11;95067.81;;;29.08;19.54
1926;BME280;964;42.606;23.588;2023-02-20T06:59:39;95048.81;;;30.82;18.19
1926;BME280;964;42.606;23.588;2023-02-20T07:02:09;95070.44;;;31.18;18.15
1926;BME280;964;42.606;23.588;2023-02-20T07:04:36;95061.88;;;32.33;17.55
1926;BME280;964;42.606;23.588;2023-02-20T07:07:03;95065.25;;;30.82;17.65
1926;BME280;964;42.606;23.588;2023-02-20T07:09:30;95077.97;;;29.26;19.15
1926;BME280;964;42.606;23.588;2023-02-20T07:11:57;95082.78;;;29.58;19.41
1926;BME280;964;42.606;23.588;2023-02-20T07:14:23;95081.91;;;30.03;19.28
1926;BME280;964;42.606;23.588;2023-02-20T07:16:52;95091.84;;;29.83;19.15
1926;BME280;964;42.606;23.588;2023-02-20T07:19:18;95082.88;;;29.91;18.98
1926;BME280;964;42.606;23.588;2023-02-20T07:21:45;95101.66;;;29.38;19.49
1926;BME280;964;42.606;23.588;2023-02-20T07:24:12;95092.22;;;29.57;19.10
1926;BME280;964;42.606;23.588;2023-02-20T07:26:39;95076.50;;;31.51;17.83
1926;BME280;964;42.606;23.588;2023-02-20T07:29:06;95072.00;;;31.78;17.55
1926;BME280;964;42.606;23.588;2023-02-20T07:31:33;95065.75;;;30.95;17.98
1926;BME280;964;42.606;23.588;2023-02-20T07:34:01;95061.22;;;31.59;17.90
1926;BME280;964;42.606;23.588;2023-02-20T07:36:27;95083.47;;;30.61;18.06
1926;BME280;964;42.606;23.588;2023-02-20T07:38:54;95078.75;;;30.29;18.18
1926;BME280;964;42.606;23.588;2023-02-20T07:41:22;95082.94;;;31.48;17.35
1926;BME280;964;42.606;23.588;2023-02-20T07:43:49;95074.78;;;31.10;17.34
1926;BME280;964;42.606;23.588;2023-02-20T07:46:16;95085.63;;;31.57;17.39
1926;BME280;964;42.606;23.588;2023-02-20T07:48:43;95096.50;;;30.66;17.59
1926;BME280;964;42.606;23.588;2023-02-20T07:51:11;95081.25;;;30.98;17.22
1926;BME280;964;42.606;23.588;2023-02-20T07:53:37;95091.91;;;30.48;17.29
1926;BME280;964;42.606;23.588;2023-02-20T07:56:05;95073.47;;;30.25;17.33
1926;BME280;964;42.606;23.588;2023-02-20T07:58:31;95080.03;;;30.51;17.10
1926;BME280;964;42.606;23.588;2023-02-20T08:00:58;95090.28;;;30.42;17.66
1926;BME280;964;42.606;23.588;2023-02-20T08:03:25;95090.28;;;30.42;17.62
1926;BME280;964;42.606;23.588;2023-02-20T08:05:51;95079.69;;;29.93;17.19
1926;BME280;964;42.606;23.588;2023-02-20T08:08:19;95093.41;;;30.49;17.42
1926;BME280;964;42.606;23.588;2023-02-20T08:10:48;95108.78;;;30.94;17.15
1926;BME280;964;42.606;23.588;2023-02-20T08:13:15;95108.81;;;31.47;16.68
1926;BME280;964;42.606;23.588;2023-02-20T08:15:42;95096.00;;;32.82;15.76
1926;BME280;964;42.606;23.588;2023-02-20T08:18:10;95110.50;;;31.30;16.16
1926;BME280;964;42.606;23.588;2023-02-20T08:20:36;95119.25;;;30.48;17.19
1926;BME280;964;42.606;23.588;2023-02-20T08:23:03;95120.34;;;31.51;16.51
1926;BME280;964;42.606;23.588;2023-02-20T08:25:32;95116.94;;;31.42;16.58
1926;BME280;964;42.606;23.588;2023-02-20T08:27:59;95106.66;;;30.09;17.08
1926;BME280;964;42.606;23.588;2023-02-20T08:30:27;95125.16;;;30.14;17.03
1926;BME280;964;42.606;23.588;2023-02-20T08:32:54;95125.00;;;30.17;16.92
1926;BME280;964;42.606;23.588;2023-02-20T08:35:21;95100.97;;;30.22;16.63
1926;BME280;964;42.606;23.588;2023-02-20T08:37:49;95109.31;;;31.60;16.19
1926;BME280;964;42.606;23.588;2023-02-20T08:40:16;95106.09;;;31.09;16.31
1926;BME280;964;42.606;23.588;2023-02-20T08:42:44;95111.03;;;31.20;16.58
1926;BME280;964;42.606;23.588;2023-02-20T08:45:12;95105.59;;;31.34;16.00
1926;BME280;964;42.606;23.588;2023-02-20T08:47:39;95103.50;;;31.15;16.67
1926;BME280;964;42.606;23.588;2023-02-20T08:50:06;95107.31;;;31.08;16.24
1926;BME280;964;42.606;23.588;2023-02-20T08:52:32;95079.78;;;32.64;16.06
1926;BME280;964;42.606;23.588;2023-02-20T08:54:59;95092.94;;;31.51;16.05
1926;BME280;964;42.606;23.588;2023-02-20T08:57:26;95089.69;;;32.41;15.57
1926;BME280;964;42.606;23.588;2023-02-20T08:59:57;95084.66;;;32.74;15.78
1926;BME280;964;42.606;23.588;2023-02-20T09:02:24;95093.84;;;31.57;15.75
1926;BME280;964;42.606;23.588;2023-02-20T09:04:53;95077.50;;;32.62;15.37
1926;BME280;964;42.606;23.588;2023-02-20T09:07:20;95083.88;;;32.04;15.41
1926;BME280;964;42.606;23.588;2023-02-20T09:09:47;95099.06;;;31.17;15.90
1926;BME280;964;42.606;23.588;2023-02-20T09:12:16;95091.03;;;30.66;16.22
1926;BME280;964;42.606;23.588;2023-02-20T09:14:44;95089.66;;;32.06;15.53
1926;BME280;964;42.606;23.588;2023-02-20T09:17:13;95088.34;;;32.36;15.41
1926;BME280;964;42.606;23.588;2023-02-20T09:19:39;95086.84;;;32.35;15.55
1926;BME280;964;42.606;23.588;2023-02-20T09:22:06;95079.47;;;34.31;14.72
1926;BME280;964;42.606;23.588;2023-02-20T09:24:33;95094.16;;;33.39;14.89
1926;BME280;964;42.606;23.588;2023-02-20T09:27:01;95098.44;;;32.10;15.51
1926;BME280;964;42.606;23.588;2023-02-20T09:29:28;95089.03;;;32.86;15.42
1926;BME280;964;42.606;23.588;2023-02-20T09:31:55;95101.69;;;33.65;15.07
1926;BME280;964;42.606;23.588;2023-02-20T09:34:23;95100.78;;;33.73;14.99
1926;BME280;964;42.606;23.588;2023-02-20T09:36:50;95108.72;;;32.65;14.95
1926;BME280;964;42.606;23.588;2023-02-20T09:39:17;95108.41;;;32.42;15.51
1926;BME280;964;42.606;23.588;2023-02-20T09:41:59;95102.63;;;33.16;14.82
1926;BME280;964;42.606;23.588;2023-02-20T09:44:33;95113.91;;;32.42;14.99
1926;BME280;964;42.606;23.588;2023-02-20T09:47:08;95113.81;;;32.72;15.28
1926;BME280;964;42.606;23.588;2023-02-20T09:49:46;95125.22;;;31.86;15.83
1926;BME280;964;42.606;23.588;2023-02-20T09:52:14;95111.69;;;31.97;15.54
1926;BME280;964;42.606;23.588;2023-02-20T09:54:46;95115.09;;;32.56;15.67
1926;BME280;964;42.606;23.588;2023-02-20T09:57:19;95094.59;;;33.58;15.36
1926;BME280;964;42.606;23.588;2023-02-20T09:59:49;95098.78;;;32.87;15.08
1926;BME280;964;42.606;23.588;2023-02-20T10:02:19;95085.84;;;32.68;15.55
1926;BME280;964;42.606;23.588;2023-02-20T10:04:51;95086.91;;;32.06;15.68
1926;BME280;964;42.606;23.588;2023-02-20T10:07:22;95084.47;;;33.18;15.26
1926;BME280;964;42.606;23.588;2023-02-20T10:09:50;95075.66;;;32.94;15.46
1926;BME280;964;42.606;23.588;2023-02-20T10:12:21;95074.41;;;32.05;16.21
1926;BME280;964;42.606;23.588;2023-02-20T10:15:09;95088.63;;;31.59;16.11
1926;BME280;964;42.606;23.588;2023-02-20T10:17:43;95085.59;;;32.01;16.09
1926;BME280;964;42.606;23.588;2023-02-20T10:20:19;95070.88;;;32.34;15.65
1926;BME280;964;42.606;23.588;2023-02-20T10:22:52;95090.13;;;31.90;15.53
1926;BME280;964;42.606;23.588;2023-02-20T10:25:26;95074.28;;;33.04;15.62
1926;BME280;964;42.606;23.588;2023-02-20T10:27:59;95076.59;;;33.57;15.17
1926;BME280;964;42.606;23.588;2023-02-20T10:30:31;95086.34;;;32.72;15.38
1926;BME280;964;42.606;23.588;2023-02-20T10:33:03;95066.97;;;32.40;15.50
1926;BME280;964;42.606;23.588;2023-02-20T10:35:41;95073.88;;;31.72;16.10
1926;BME280;964;42.606;23.588;2023-02-20T10:38:12;95066.50;;;31.92;15.48
1926;BME280;964;42.606;23.588;2023-02-20T10:40:46;95085.69;;;31.78;15.53
1926;BME280;964;42.606;23.588;2023-02-20T10:43:18;95053.69;;;33.14;14.71
1926;BME280;964;42.606;23.588;2023-02-20T10:45:51;95055.84;;;32.29;14.89
1926;BME280;964;42.606;23.588;2023-02-20T10:48:22;95047.50;;;32.58;14.99
1926;BME280;964;42.606;23.588;2023-02-20T10:50:58;95045.72;;;33.42;14.25
1926;BME280;964;42.606;23.588;2023-02-20T10:53:34;95042.66;;;32.13;15.26
1926;BME280;964;42.606;23.588;2023-02-20T10:56:09;95043.13;;;31.97;14.95
1926;BME280;964;42.606;23.588;2023-02-20T10:58:40;95038.81;;;32.25;14.99
1926;BME280;964;42.606;23.588;2023-02-20T11:01:12;95047.81;;;31.62;15.24
1926;BME280;964;42.606;23.588;2023-02-20T11:03:45;95036.03;;;32.40;14.90
1926;BME280;964;42.606;23.588;2023-02-20T11:06:17;95034.16;;;31.96;14.70
1926;BME280;964;42.606;23.588;2023-02-20T11:08:45;95028.97;;;32.33;15.19
1926;BME280;964;42.606;23.588;2023-02-20T11:11:21;95043.75;;;32.21;14.71
1926;BME280;964;42.606;23.588;2023-02-20T11:13:48;95024.50;;;33.17;14.69
1926;BME280;964;42.606;23.588;2023-02-20T11:16:21;95043.16;;;32.67;14.07
1926;BME280;964;42.606;23.588;2023-02-20T11:18:55;95032.97;;;33.65;13.99
1926;BME280;964;42.606;23.588;2023-02-20T11:21:37;95029.78;;;33.20;14.62
1926;BME280;964;42.606;23.588;2023-02-20T11:24:24;95013.47;;;33.63;14.08
1926;BME280;964;42.606;23.588;2023-02-20T11:26:57;95027.34;;;32.62;14.46
1926;BME280;964;42.606;23.588;2023-02-20T11:29:27;95024.50;;;32.01;14.60
1926;BME280;964;42.606;23.588;2023-02-20T11:32:27;95015.97;;;31.99;14.92
1926;BME280;964;42.606;23.588;2023-02-20T11:35:13;95021.28;;;32.57;14.78
1926;BME280;964;42.606;23.588;2023-02-20T11:37:42;95027.78;;;33.21;14.51
1926;BME280;964;42.606;23.588;2023-02-20T11:40:14;95021.56;;;32.39;14.75
1926;BME280;964;42.606;23.588;2023-02-20T11:42:41;95027.66;;;32.29;14.89
1926;BME280;964;42.606;23.588;2023-02-20T11:45:14;95029.72;;;32.34;14.69
1926;BME280;964;42.606;23.588;2023-02-20T11:47:41;95018.97;;;33.37;14.65
1926;BME280;964;42.606;23.588;2023-02-20T11:50:16;95000.28;;;33.46;14.30
1926;BME280;964;42.606;23.588;2023-02-20T11:52:59;95004.06;;;33.23;15.06
1926;BME280;964;42.606;23.588;2023-02-20T11:55:26;95010.81;;;33.22;14.86
1926;BME280;964;42.606;23.588;2023-02-20T11:58:21;95012.09;;;32.20;15.21
1926;BME280;964;42.606;23.588;2023-02-20T12:00:51;94998.25;;;33.16;14.52
1926;BME280;964;42.606;23.588;2023-02-20T12:03:20;95000.84;;;33.25;14.62
1926;BME280;964;42.606;23.588;2023-02-20T12:05:48;94988.97;;;33.39;14.32
1926;BME280;964;42.606;23.588;2023-02-20T12:08:35;95010.09;;;33.27;14.46
1926;BME280;964;42.606;23.588;2023-02-20T12:11:04;94991.06;;;33.18;14.64
1926;BME280;964;42.606;23.588;2023-02-20T12:13:36;94989.34;;;32.75;14.96
1926;BME280;964;42.606;23.588;2023-02-20T12:16:19;94996.25;;;32.10;15.41
1926;BME280;964;42.606;23.588;2023-02-20T12:18:51;94985.97;;;32.45;15.60
1926;BME280;964;42.606;23.588;2023-02-20T12:21:44;94989.22;;;33.67;14.81
1926;BME280;964;42.606;23.588;2023-02-20T12:24:40;94985.69;;;33.97;14.59
1926;BME280;964;42.606;23.588;2023-02-20T12:27:23;94986.06;;;32.71;14.53
1926;BME280;964;42.606;23.588;2023-02-20T12:29:58;94989.84;;;32.99;14.45
1926;BME280;964;42.606;23.588;2023-02-20T12:32:36;94982.50;;;33.68;14.25
1926;BME280;964;42.606;23.588;2023-02-20T12:35:18;94985.69;;;34.34;14.51
1926;BME280;964;42.606;23.588;2023-02-20T12:37:58;94988.53;;;33.15;15.00
1926;BME280;964;42.606;23.588;2023-02-20T12:40:36;95004.59;;;33.01;15.19
1926;BME280;964;42.606;23.588;2023-02-20T12:43:19;95011.22;;;33.41;14.40
1926;BME280;964;42.606;23.588;2023-02-20T12:45:55;95012.53;;;32.74;14.59
1926;BME280;964;42.606;23.588;2023-02-20T12:48:38;95009.63;;;32.83;15.06
1926;BME280;964;42.606;23.588;2023-02-20T12:51:13;95017.31;;;33.50;14.42
1926;BME280;964;42.606;23.588;2023-02-20T12:53:50;95018.06;;;32.99;14.46
1926;BME280;964;42.606;23.588;2023-02-20T12:56:29;95018.66;;;33.09;14.84
1926;BME280;964;42.606;23.588;2023-02-20T12:59:05;95015.25;;;34.51;14.07
1926;BME280;964;42.606;23.588;2023-02-20T13:01:34;95001.25;;;35.24;13.79
1926;BME280;964;42.606;23.588;2023-02-20T13:04:06;94991.66;;;34.92;13.68
1926;BME280;964;42.606;23.588;2023-02-20T13:06:41;95000.72;;;35.04;13.87
1926;BME280;964;42.606;23.588;2023-02-20T13:09:17;95000.75;;;35.20;13.90
1926;BME280;964;42.606;23.588;2023-02-20T13:11:47;95003.03;;;35.44;13.76
1926;BME280;964;42.606;23.588;2023-02-20T13:14:31;94989.94;;;34.35;14.06
1926;BME280;964;42.606;23.588;2023-02-20T13:17:07;94992.88;;;33.84;14.73
1926;BME280;964;42.606;23.588;2023-02-20T13:19:41;95009.22;;;31.94;15.62
1926;BME280;964;42.606;23.588;2023-02-20T13:22:11;95013.59;;;32.21;15.60
1926;BME280;964;42.606;23.588;2023-02-20T13:24:38;95016.84;;;32.05;15.10
1926;BME280;964;42.606;23.588;2023-02-20T13:27:06;95007.78;;;32.54;15.16
1926;BME280;964;42.606;23.588;2023-02-20T13:29:36;95010.50;;;33.40;14.87
1926;BME280;964;42.606;23.588;2023-02-20T13:32:21;95013.13;;;33.29;15.12
1926;BME280;964;42.606;23.588;2023-02-20T13:34:50;95014.06;;;33.21;14.91
1926;BME280;964;42.606;23.588;2023-02-20T13:37:51;95026.22;;;33.14;14.97
1926;BME280;964;42.606;23.588;2023-02-20T13:40:36;95026.44;;;32.90;14.83
1926;BME280;964;42.606;23.588;2023-02-20T13:43:18;95039.25;;;32.58;15.45
1926;BME280;964;42.606;23.588;2023-02-20T13:46:16;95041.06;;;30.80;16.25
1926;BME280;964;42.606;23.588;2023-02-20T13:48:48;95050.91;;;30.87;16.31
1926;BME280;964;42.606;23.588;2023-02-20T13:51:34;95043.72;;;31.13;16.45
1926;BME280;964;42.606;23.588;2023-02-20T13:54:26;95045.47;;;31.54;16.31
1926;BME280;964;42.606;23.588;2023-02-20T13:56:57;95041.34;;;31.94;15.96